createdAt,value
2022-11-10T00:01:58.788Z,1.10
2022-11-10T00:04:26.391Z,1.55
2022-11-10T00:06:53.905Z,1.45
2022-11-10T00:09:21.506Z,1.42
2022-11-10T00:11:50.260Z,1.13
2022-11-10T00:14:35.472Z,1.60
2022-11-10T00:17:04.310Z,1.58
2022-11-10T00:19:32.528Z,1.55
2022-11-10T00:22:01.248Z,1.27
2022-11-10T00:24:29.287Z,1.40
2022-11-10T00:26:58.090Z,1.55
2022-11-10T00:29:25.537Z,1.48
2022-11-10T00:31:52.950Z,1.95
2022-11-10T00:34:20.362Z,1.27
2022-11-10T00:36:47.783Z,1.40
2022-11-10T00:39:15.336Z,1.08
2022-11-10T00:41:43.158Z,1.60
2022-11-10T00:44:12.326Z,1.20
2022-11-10T00:46:39.831Z,1.35
2022-11-10T00:49:07.298Z,1.25
2022-11-10T00:51:34.780Z,1.20
2022-11-10T00:54:02.261Z,1.33
2022-11-10T00:56:29.707Z,1.40
2022-11-10T00:58:57.164Z,1.30
2022-11-10T01:01:26.705Z,1.35
2022-11-10T01:03:55.423Z,1.42
2022-11-10T01:06:23.243Z,1.33
2022-11-10T01:08:51.164Z,1.30
2022-11-10T01:11:20.822Z,1.42
2022-11-10T01:13:48.635Z,1.40
2022-11-10T01:16:19.746Z,1.15
2022-11-10T01:18:52.220Z,1.50
2022-11-10T01:21:20.684Z,1.17
2022-11-10T01:23:48.571Z,1.58
2022-11-10T01:26:17.421Z,1.70
2022-11-10T01:28:45.421Z,1.60
2022-11-10T01:31:15.749Z,1.60
2022-11-10T01:33:43.852Z,1.20
2022-11-10T01:36:14.198Z,1.15
2022-11-10T01:38:43.054Z,1.67
2022-11-10T01:41:13.937Z,1.40
2022-11-10T01:43:42.176Z,1.65
2022-11-10T01:46:10.963Z,1.95
2022-11-10T01:48:42.092Z,1.50
2022-11-10T01:51:15.619Z,1.58
2022-11-10T01:53:47.682Z,1.33
2022-11-10T01:56:16.480Z,1.38
2022-11-10T01:58:47.913Z,1.98
2022-11-10T02:01:15.810Z,1.20
2022-11-10T02:03:49.011Z,1.67
2022-11-10T02:06:18.908Z,1.48
2022-11-10T02:08:47.794Z,1.50
2022-11-10T02:11:15.625Z,1.30
2022-11-10T02:13:43.938Z,1.50
2022-11-10T02:16:11.782Z,1.80
2022-11-10T02:18:39.650Z,1.45
2022-11-10T02:21:09.040Z,1.40
2022-11-10T02:23:50.778Z,1.85
2022-11-10T02:26:21.434Z,1.45
2022-11-10T02:28:48.893Z,1.45
2022-11-10T02:31:16.553Z,1.52
2022-11-10T02:33:44.442Z,1.50
2022-11-10T02:36:13.514Z,1.55
2022-11-10T02:38:41.349Z,1.42
2022-11-10T02:41:08.787Z,1.77
2022-11-10T02:43:37.585Z,1.70
2022-11-10T02:46:05.212Z,1.33
2022-11-10T02:48:33.603Z,1.50
2022-11-10T02:51:01.072Z,1.30
2022-11-10T02:53:29.861Z,2.15
2022-11-10T02:55:57.307Z,1.75
2022-11-10T02:58:24.794Z,1.42
2022-11-10T03:00:52.286Z,1.60
2022-11-10T03:03:20.134Z,1.67
2022-11-10T03:05:47.843Z,1.45
2022-11-10T03:08:15.288Z,1.92
2022-11-10T03:10:44.146Z,1.40
2022-11-10T03:13:11.586Z,1.70
2022-11-10T03:15:39.122Z,1.67
2022-11-10T03:18:06.749Z,2.03
2022-11-10T03:20:34.201Z,1.40
2022-11-10T03:23:02.783Z,1.60
2022-11-10T03:27:58.875Z,1.20
2022-11-10T03:30:26.747Z,1.60
2022-11-10T03:32:54.172Z,1.92
2022-11-10T03:35:21.620Z,1.63
2022-11-10T03:37:49.060Z,2.17
2022-11-10T03:40:16.911Z,2.00
2022-11-10T03:42:44.841Z,1.33
2022-11-10T03:45:15.498Z,1.75
2022-11-10T03:47:46.894Z,2.05
2022-11-10T03:50:15.129Z,2.22
2022-11-10T03:52:44.472Z,1.65
2022-11-10T03:55:12.691Z,1.67
2022-11-10T03:57:40.175Z,1.50
2022-11-10T04:00:09.455Z,1.90
2022-11-10T04:02:38.554Z,1.80
2022-11-10T04:05:25.045Z,1.58
2022-11-10T04:08:15.833Z,1.90
2022-11-10T04:10:43.826Z,1.70
2022-11-10T04:13:29.333Z,1.60
2022-11-10T04:15:56.957Z,2.67
2022-11-10T04:18:25.883Z,1.95
2022-11-10T04:20:58.779Z,1.25
2022-11-10T04:23:28.422Z,1.85
2022-11-10T04:26:15.428Z,1.58
2022-11-10T04:31:11.288Z,2.10
2022-11-10T04:33:41.226Z,1.80
2022-11-10T04:36:10.576Z,1.80
2022-11-10T04:38:38.644Z,1.98
2022-11-10T04:41:06.883Z,1.60
2022-11-10T04:43:35.147Z,1.80
2022-11-10T04:46:03.396Z,1.90
2022-11-10T04:48:31.630Z,1.92
2022-11-10T04:51:04.160Z,2.22
2022-11-10T04:53:31.599Z,1.77
2022-11-10T04:55:59.015Z,2.13
2022-11-10T04:58:26.470Z,2.15
2022-11-10T05:00:54.093Z,2.13
2022-11-10T05:03:21.896Z,2.30
2022-11-10T05:05:50.083Z,2.50
2022-11-10T05:08:18.864Z,2.13
2022-11-10T05:10:46.355Z,2.35
2022-11-10T05:13:13.992Z,2.45
2022-11-10T05:15:42.200Z,2.05
2022-11-10T05:18:09.667Z,2.17
2022-11-10T05:20:37.170Z,2.58
2022-11-10T05:23:22.494Z,1.90
2022-11-10T05:25:51.616Z,2.08
2022-11-10T05:28:19.067Z,2.40
2022-11-10T05:30:46.869Z,2.33
2022-11-10T05:33:14.306Z,2.10
2022-11-10T05:35:44.220Z,3.22
2022-11-10T05:38:11.671Z,2.28
2022-11-10T05:40:39.152Z,2.15
2022-11-10T05:43:07.953Z,2.40
2022-11-10T05:45:35.411Z,2.75
2022-11-10T05:48:02.888Z,3.15
2022-11-10T05:50:30.388Z,3.30
2022-11-10T05:52:57.834Z,3.35
2022-11-10T05:55:27.653Z,4.15
2022-11-10T05:57:56.881Z,5.05
2022-11-10T06:00:28.696Z,3.78
2022-11-10T06:03:01.102Z,3.42
2022-11-10T06:05:31.289Z,3.78
2022-11-10T06:07:59.402Z,2.97
2022-11-10T06:10:27.557Z,2.70
2022-11-10T06:12:55.028Z,3.10
2022-11-10T06:15:23.354Z,3.10
2022-11-10T06:17:52.477Z,3.05
2022-11-10T06:20:21.048Z,2.78
2022-11-10T06:22:59.758Z,3.10
2022-11-10T06:25:27.736Z,3.03
2022-11-10T06:27:55.196Z,2.65
2022-11-10T06:30:23.223Z,2.47
2022-11-10T06:32:52.207Z,2.90
2022-11-10T06:35:20.284Z,3.00
2022-11-10T06:37:47.976Z,3.40
2022-11-10T06:40:15.554Z,3.20
2022-11-10T06:42:43.035Z,2.80
2022-11-10T06:45:11.076Z,2.58
2022-11-10T06:47:38.513Z,2.78
2022-11-10T06:50:08.428Z,2.95
2022-11-10T06:52:35.881Z,2.95
2022-11-10T06:55:03.407Z,2.70
2022-11-10T06:57:30.868Z,2.65
2022-11-10T06:59:58.305Z,3.05
2022-11-10T07:02:25.781Z,3.05
2022-11-10T07:04:53.202Z,3.58
2022-11-10T07:07:21.981Z,3.17
2022-11-10T07:09:49.430Z,3.65
2022-11-10T07:12:16.852Z,3.47
2022-11-10T07:14:44.284Z,3.60
2022-11-10T07:17:11.719Z,3.08
2022-11-10T07:19:39.160Z,2.63
2022-11-10T07:22:10.968Z,2.90
2022-11-10T07:24:40.216Z,3.75
2022-11-10T07:27:08.211Z,3.17
2022-11-10T07:29:35.649Z,3.33
2022-11-10T07:32:03.191Z,2.80
2022-11-10T07:34:32.544Z,2.75
2022-11-10T07:36:59.962Z,4.07
2022-11-10T07:39:27.494Z,4.40
2022-11-10T07:41:58.581Z,3.72
2022-11-10T07:44:26.252Z,3.05
2022-11-10T07:46:53.827Z,4.72
2022-11-10T07:49:21.425Z,4.05
2022-11-10T07:51:49.210Z,3.63
2022-11-10T07:54:16.653Z,3.67
2022-11-10T07:56:44.095Z,4.85
2022-11-10T07:59:12.876Z,3.90
2022-11-10T08:01:40.371Z,3.28
2022-11-10T08:04:07.916Z,4.78
2022-11-10T08:06:36.724Z,4.18
2022-11-10T08:09:04.459Z,5.47
2022-11-10T08:11:31.872Z,4.72
2022-11-10T08:13:59.389Z,4.93
2022-11-10T08:16:28.190Z,4.72
2022-11-10T08:18:55.626Z,5.40
2022-11-10T08:21:23.427Z,6.30
2022-11-10T08:23:51.145Z,5.15
2022-11-10T08:26:19.094Z,3.90
2022-11-10T08:28:48.194Z,5.60
2022-11-10T08:31:16.724Z,5.32
2022-11-10T08:33:46.165Z,4.90
2022-11-10T08:36:14.948Z,4.78
2022-11-10T08:38:42.484Z,3.92
2022-11-10T08:41:09.920Z,4.38
2022-11-10T08:43:37.346Z,5.40
2022-11-10T08:46:04.846Z,4.40
2022-11-10T08:48:32.300Z,3.92
2022-11-10T08:51:02.430Z,5.00
2022-11-10T08:53:29.923Z,4.28
2022-11-10T08:56:00.083Z,4.90
2022-11-10T08:58:27.563Z,4.22
2022-11-10T09:00:55.036Z,4.70
2022-11-10T09:03:24.795Z,4.63
2022-11-10T09:05:58.338Z,4.85
2022-11-10T09:08:27.638Z,4.55
2022-11-10T09:10:55.166Z,4.70
2022-11-10T09:13:29.071Z,4.53
2022-11-10T09:15:57.921Z,4.53
2022-11-10T09:18:25.342Z,4.47
2022-11-10T09:20:52.815Z,4.63
2022-11-10T09:23:20.816Z,4.40
2022-11-10T09:25:52.821Z,4.47
2022-11-10T09:28:22.168Z,4.40
2022-11-10T09:30:51.059Z,4.82
2022-11-10T09:33:19.299Z,5.57
2022-11-10T09:35:46.893Z,2.63
2022-11-10T09:38:14.704Z,4.57
2022-11-10T09:40:56.543Z,4.53
2022-11-10T09:43:31.327Z,5.65
2022-11-10T09:48:31.560Z,4.70
2022-11-10T09:51:02.766Z,6.00
2022-11-10T09:53:37.921Z,4.13
2022-11-10T09:56:08.523Z,4.15
2022-11-10T09:58:42.017Z,4.60
2022-11-10T10:01:24.785Z,2.13
2022-11-10T10:04:03.651Z,3.75
2022-11-10T10:06:49.834Z,3.95
2022-11-10T10:09:28.924Z,4.43
2022-11-10T10:12:08.419Z,5.53
2022-11-10T10:14:51.688Z,4.95
2022-11-10T10:17:26.956Z,4.55
2022-11-10T10:20:01.851Z,4.13
2022-11-10T10:22:47.113Z,4.88
2022-11-10T10:25:19.896Z,3.38
2022-11-10T10:27:55.121Z,4.22
2022-11-10T10:30:22.592Z,4.22
2022-11-10T10:32:56.134Z,4.10
2022-11-10T10:35:24.063Z,2.97
2022-11-10T10:37:54.811Z,1.92
2022-11-10T10:40:25.632Z,3.70
2022-11-10T10:42:54.405Z,3.65
2022-11-10T10:45:24.462Z,3.00
2022-11-10T10:47:53.765Z,3.90
2022-11-10T10:50:25.220Z,2.90
2022-11-10T10:53:16.746Z,2.15
2022-11-10T10:55:49.945Z,3.08
2022-11-10T10:58:25.132Z,2.90
2022-11-10T11:00:56.021Z,2.83
2022-11-10T11:03:28.739Z,3.10
2022-11-10T11:06:05.735Z,2.15
2022-11-10T11:08:33.493Z,2.38
2022-11-10T11:11:10.007Z,3.58
2022-11-10T11:13:39.114Z,2.00
2022-11-10T11:16:09.505Z,3.72
2022-11-10T11:18:40.720Z,2.75
2022-11-10T11:21:15.095Z,2.78
2022-11-10T11:24:18.731Z,2.53
2022-11-10T11:26:54.806Z,2.30
2022-11-10T11:29:37.071Z,2.53
2022-11-10T11:32:20.133Z,2.55
2022-11-10T11:34:57.281Z,2.05
2022-11-10T11:37:32.757Z,1.38
2022-11-10T11:40:14.322Z,1.95
2022-11-10T11:42:53.494Z,1.40
2022-11-10T11:45:33.368Z,1.95
2022-11-10T11:48:19.636Z,1.38
2022-11-10T11:50:55.155Z,1.73
2022-11-10T11:53:39.050Z,2.00
2022-11-10T11:56:20.376Z,0.63
2022-11-10T11:58:59.950Z,2.00
2022-11-10T12:01:42.314Z,1.38
2022-11-10T12:04:36.442Z,1.30
2022-11-10T12:07:23.677Z,2.00
2022-11-10T12:09:55.823Z,1.67
2022-11-10T12:12:52.159Z,1.65
2022-11-10T12:15:29.968Z,1.05
2022-11-10T12:18:11.091Z,1.42
2022-11-10T12:20:51.288Z,1.55
2022-11-10T12:23:29.205Z,1.60
2022-11-10T12:26:06.315Z,1.10
2022-11-10T12:28:39.556Z,1.52
2022-11-10T12:31:13.847Z,1.38
2022-11-10T12:33:48.346Z,1.20
2022-11-10T12:36:20.983Z,0.98
2022-11-10T12:39:00.277Z,1.35
2022-11-10T12:41:33.954Z,0.90
2022-11-10T12:44:09.002Z,1.40
2022-11-10T12:46:36.412Z,1.30
2022-11-10T12:49:17.670Z,0.80
2022-11-10T12:51:54.111Z,0.77
2022-11-10T12:54:26.157Z,1.00
2022-11-10T12:56:57.501Z,1.00
2022-11-10T12:59:31.206Z,0.93
2022-11-10T13:02:03.671Z,0.75
2022-11-10T13:04:33.724Z,0.98
2022-11-10T13:07:07.545Z,0.30
2022-11-10T13:09:41.173Z,1.08
2022-11-10T13:12:20.939Z,0.80
2022-11-10T13:14:49.737Z,0.70
2022-11-10T13:17:54.067Z,1.00
2022-11-10T13:20:49.237Z,1.00
2022-11-10T13:23:28.738Z,1.45
2022-11-10T13:26:02.367Z,1.45
2022-11-10T13:29:03.805Z,1.52
2022-11-10T13:31:42.427Z,1.42
2022-11-10T13:34:12.218Z,0.60
2022-11-10T13:36:42.723Z,0.90
2022-11-10T13:39:28.890Z,1.27
2022-11-10T13:42:01.496Z,1.40
2022-11-10T13:44:32.325Z,1.05
2022-11-10T13:47:35.851Z,1.40
2022-11-10T13:50:25.878Z,0.70
2022-11-10T13:53:07.579Z,0.60
2022-11-10T13:55:50.899Z,1.02
2022-11-10T13:58:24.345Z,0.70
2022-11-10T14:01:22.891Z,0.65
2022-11-10T14:03:57.272Z,0.57
2022-11-10T14:06:28.112Z,0.77
2022-11-10T14:09:03.982Z,0.47
2022-11-10T14:11:36.778Z,0.75
2022-11-10T14:14:13.607Z,0.60
2022-11-10T14:16:42.746Z,0.52
2022-11-10T14:19:32.291Z,0.60
2022-11-10T14:22:04.504Z,0.95
2022-11-10T14:24:38.548Z,0.98
2022-11-10T14:27:08.610Z,0.82
2022-11-10T14:29:39.190Z,0.68
2022-11-10T14:32:15.101Z,0.70
2022-11-10T14:34:48.124Z,0.80
2022-11-10T14:37:27.878Z,1.00
2022-11-10T14:39:58.587Z,0.82
2022-11-10T14:42:27.972Z,1.55
2022-11-10T14:45:20.402Z,2.20
2022-11-10T14:47:53.292Z,0.90
2022-11-10T14:50:23.699Z,1.10
2022-11-10T14:52:55.993Z,0.90
2022-11-10T14:55:27.887Z,1.25
2022-11-10T14:58:01.901Z,1.10
2022-11-10T15:00:29.751Z,1.25
2022-11-10T15:02:58.951Z,0.75
2022-11-10T15:05:26.639Z,0.80
2022-11-10T15:07:56.515Z,1.00
2022-11-10T15:10:27.607Z,0.80
2022-11-10T15:13:03.732Z,0.70
2022-11-10T15:15:31.563Z,0.95
2022-11-10T15:17:59.047Z,0.95
2022-11-10T15:20:40.732Z,1.05
2022-11-10T15:23:22.383Z,0.65
2022-11-10T15:25:53.345Z,0.88
2022-11-10T15:28:29.638Z,0.50
2022-11-10T15:31:00.024Z,0.73
2022-11-10T15:33:30.779Z,1.00
2022-11-10T15:36:15.091Z,1.38
2022-11-10T15:38:42.570Z,0.68
2022-11-10T15:41:15.184Z,1.00
2022-11-10T15:43:42.958Z,1.27
2022-11-10T15:46:17.892Z,1.30
2022-11-10T15:48:47.795Z,1.05
2022-11-10T15:51:21.492Z,1.40
2022-11-10T15:53:54.131Z,1.50
2022-11-10T15:56:25.223Z,1.20
2022-11-10T15:58:59.193Z,1.17
2022-11-10T16:01:29.509Z,1.30
2022-11-10T16:03:57.103Z,1.50
2022-11-10T16:06:24.592Z,1.63
2022-11-10T16:08:52.015Z,1.45
2022-11-10T16:11:21.506Z,1.80
2022-11-10T16:13:51.284Z,2.13
2022-11-10T16:16:20.175Z,2.53
2022-11-10T16:18:47.807Z,1.65
2022-11-10T16:21:17.199Z,2.17
2022-11-10T16:23:44.933Z,2.22
2022-11-10T16:26:16.033Z,2.88
2022-11-10T16:28:47.494Z,2.85
2022-11-10T16:31:17.194Z,2.17
2022-11-10T16:33:45.110Z,2.42
2022-11-10T16:36:20.270Z,1.92
2022-11-10T16:38:47.763Z,2.15
2022-11-10T16:41:15.436Z,2.22
2022-11-10T16:43:42.885Z,2.20
2022-11-10T16:46:19.387Z,2.10
2022-11-10T16:48:48.412Z,1.60
2022-11-10T16:51:17.770Z,1.63
2022-11-10T16:53:46.723Z,1.83
2022-11-10T16:56:15.896Z,1.75
2022-11-10T16:58:43.436Z,1.50
2022-11-10T17:01:20.016Z,1.30
2022-11-10T17:03:51.127Z,1.20
2022-11-10T17:06:21.489Z,1.13
2022-11-10T17:08:51.666Z,1.15
2022-11-10T17:11:19.541Z,0.90
2022-11-10T17:13:46.973Z,0.80
2022-11-10T17:16:21.755Z,1.00
2022-11-10T17:21:17.437Z,0.80
2022-11-10T17:23:44.961Z,0.88
2022-11-10T17:26:15.051Z,0.68
2022-11-10T17:28:42.503Z,0.60
2022-11-10T17:31:09.977Z,0.70
2022-11-10T17:33:38.752Z,0.63
2022-11-10T17:36:12.528Z,0.80
2022-11-10T17:38:41.644Z,0.88
2022-11-10T17:41:14.902Z,0.60
2022-11-10T17:43:45.523Z,0.82
2022-11-10T17:46:13.605Z,0.70
2022-11-10T17:48:42.700Z,0.70
2022-11-10T17:51:13.770Z,1.10
2022-11-10T17:53:41.198Z,0.68
2022-11-10T17:56:08.811Z,0.80
2022-11-10T17:58:36.258Z,0.80
2022-11-10T18:01:08.317Z,1.10
2022-11-10T18:03:35.801Z,0.90
2022-11-10T18:06:07.903Z,0.60
2022-11-10T18:08:35.343Z,0.80
2022-11-10T18:11:02.817Z,0.55
2022-11-10T18:13:30.238Z,1.00
2022-11-10T18:15:59.680Z,0.70
2022-11-10T18:18:27.157Z,0.90
2022-11-10T18:20:55.884Z,0.70
2022-11-10T18:23:25.008Z,0.55
2022-11-10T18:25:52.883Z,0.85
2022-11-10T18:28:20.367Z,0.60
2022-11-10T18:30:47.814Z,0.73
2022-11-10T18:33:15.255Z,0.73
2022-11-10T18:35:42.960Z,0.60
2022-11-10T18:38:13.208Z,0.70
2022-11-10T18:40:41.982Z,1.20
2022-11-10T18:43:09.411Z,1.15
2022-11-10T18:45:37.270Z,1.10
2022-11-10T18:48:05.356Z,1.20
2022-11-10T18:50:32.891Z,1.08
2022-11-10T18:53:00.326Z,1.08
2022-11-10T18:55:27.775Z,1.10
2022-11-10T18:57:56.605Z,0.85
2022-11-10T19:00:24.287Z,1.45
2022-11-10T19:02:51.760Z,1.10
2022-11-10T19:05:19.219Z,0.88
2022-11-10T19:07:46.647Z,1.15
2022-11-10T19:10:14.364Z,1.15
2022-11-10T19:12:41.812Z,1.17
2022-11-10T19:15:10.789Z,1.00
2022-11-10T19:17:38.221Z,0.85
2022-11-10T19:20:06.604Z,1.10
2022-11-10T19:22:34.045Z,1.13
2022-11-10T19:25:08.111Z,0.90
2022-11-10T19:27:36.485Z,0.75
2022-11-10T19:30:04.490Z,0.70
2022-11-10T19:32:33.255Z,0.93
2022-11-10T19:37:32.121Z,0.90
2022-11-10T19:40:01.932Z,0.98
2022-11-10T19:42:29.378Z,0.85
2022-11-10T19:44:57.852Z,1.40
2022-11-10T19:47:25.532Z,1.00
2022-11-10T19:49:54.370Z,1.10
2022-11-10T19:52:21.791Z,1.30
2022-11-10T19:54:49.227Z,0.70
2022-11-10T19:57:16.648Z,1.25
2022-11-10T19:59:44.064Z,1.10
2022-11-10T20:02:13.476Z,0.93
2022-11-10T20:05:01.202Z,0.95
2022-11-10T20:07:47.611Z,1.23
2022-11-10T20:10:15.052Z,1.50
2022-11-10T20:12:42.468Z,1.55
2022-11-10T20:15:10.946Z,1.70
2022-11-10T20:17:38.451Z,2.90
2022-11-10T20:20:07.071Z,4.13
2022-11-10T20:22:35.847Z,3.85
2022-11-10T20:27:30.851Z,3.85
2022-11-10T20:29:58.345Z,3.45
2022-11-10T20:32:26.397Z,3.50
2022-11-10T20:34:53.986Z,3.05
2022-11-10T20:37:21.592Z,2.90
2022-11-10T20:39:50.350Z,3.90
2022-11-10T20:42:17.788Z,3.60
2022-11-10T20:44:45.264Z,3.72
2022-11-10T20:47:12.776Z,2.90
2022-11-10T20:49:40.340Z,2.00
2022-11-10T20:52:07.759Z,1.77
2022-11-10T20:54:35.227Z,1.70
2022-11-10T20:57:04.020Z,1.77
2022-11-10T20:59:31.619Z,2.05
2022-11-10T21:01:59.150Z,1.85
2022-11-10T21:04:26.824Z,2.03
2022-11-10T21:06:54.462Z,2.20
2022-11-10T21:09:21.895Z,1.85
2022-11-10T21:12:07.068Z,1.83
2022-11-10T21:14:35.852Z,1.70
2022-11-10T21:17:03.279Z,1.30
2022-11-10T21:19:33.631Z,1.27
2022-11-10T21:22:01.120Z,1.00
2022-11-10T21:24:29.138Z,1.20
2022-11-10T21:26:57.206Z,1.50
2022-11-10T21:29:27.399Z,1.33
2022-11-10T21:31:56.143Z,1.17
2022-11-10T21:36:50.923Z,1.10
2022-11-10T21:39:18.392Z,1.30
2022-11-10T21:41:45.855Z,7.28
2022-11-10T21:44:13.287Z,7.18
2022-11-10T21:46:40.725Z,7.50
2022-11-10T21:49:09.489Z,3.92
2022-11-10T21:54:04.253Z,1.95
2022-11-10T21:56:31.689Z,1.75
2022-11-10T21:58:59.396Z,1.38
2022-11-10T22:01:27.168Z,1.92
2022-11-10T22:03:54.635Z,1.88
2022-11-10T22:06:23.533Z,1.63
2022-11-10T22:08:50.974Z,1.75
2022-11-10T22:11:37.821Z,1.67
2022-11-10T22:14:36.849Z,1.45
2022-11-10T22:17:22.207Z,1.27
2022-11-10T22:19:49.615Z,1.35
2022-11-10T22:22:18.372Z,1.77
2022-11-10T22:27:13.091Z,1.30
2022-11-10T22:29:40.548Z,1.48
2022-11-10T22:32:07.986Z,1.70
2022-11-10T22:34:35.440Z,1.50
2022-11-10T22:37:02.886Z,1.60
2022-11-10T22:39:45.624Z,1.55
2022-11-10T22:42:39.507Z,1.48
2022-11-10T22:45:08.102Z,1.60
2022-11-10T22:47:50.527Z,1.40
2022-11-10T22:50:17.939Z,1.15
2022-11-10T22:52:45.371Z,1.30
2022-11-10T22:55:14.226Z,1.23
2022-11-10T22:57:41.658Z,1.15
2022-11-10T23:00:10.424Z,1.17
2022-11-10T23:05:05.550Z,1.30
2022-11-10T23:07:32.971Z,1.08
2022-11-10T23:10:00.414Z,1.40
2022-11-10T23:12:29.178Z,1.15
2022-11-10T23:17:23.903Z,0.93
2022-11-10T23:19:51.319Z,1.30
2022-11-10T23:22:18.758Z,1.20
2022-11-10T23:24:46.162Z,1.38
2022-11-10T23:27:13.589Z,1.50
2022-11-10T23:29:42.351Z,1.80
2022-11-10T23:37:04.404Z,1.35
2022-11-10T23:39:31.865Z,1.60
2022-11-10T23:41:59.279Z,1.40
2022-11-10T23:44:26.712Z,1.55
2022-11-10T23:46:55.468Z,1.77
2022-11-10T23:51:50.266Z,1.35
2022-11-10T23:54:17.764Z,1.73
2022-11-10T23:56:45.189Z,1.73
2022-11-10T23:59:12.620Z,1.60
